Tiempo atmosférico en la estación meteorológica de Aranjuez, Madrid (540 m.)



Fecha
DESCASC
Temp. máxima en grados centígrados (hora)
DESCASC
Temp. mínima en grados centígrados (hora)
DESCASC
Temp. media en grados centígrados
DESCASC
Racha de viento máxima en m/sg (hora)
DESCASC
Velocidad máxima media en intervalos de 10 minutos(hora)
DESCASC
Precipitaciones diarias en mm
DESCASC
Precipitaciones de 00:00 a 06:00 en mm
DESCASC
Precipitaciones de 06:00 a 12:00 en mm
DESCASC
Precipitaciones de 12:00 a 18:00 en mm
DESCASC
Precipitaciones de 18:00 a 24:00 en mm
DESCASC
05-04-2020 22.2 (18:00) 8.5 (08:20) 15.4 9.72 (00:40) 5.83 (03:40) 0.2 0.2 0 0 0
04-04-2020 19.4 (16:10) 4 (06:00) 11.7 14.44 (13:30) 7.78 (13:30) 0 0 0 0 0
03-04-2020 18.2 (19:10) 3 (08:30) 10.6 4.17 (01:10) 2.5 (01:10) 0 0 0 0 0
02-04-2020 17.2 (17:10) 1 (00:00) 9.1 9.44 (18:50) 4.72 (18:50) 0 0 0 0 0
01-04-2020 15.4 (17:10) 4.5 (00:00) 9.9 6.94 (00:30) 3.89 (17:50) 1.2 0 1.1 0.1 0
31-03-2020 12.9 (16:40) 2.2 (00:00) 7.5 10.83 (13:00) 5.83 (15:30) 28.8 0.9 8.9 6.4 12.6
30-03-2020 10.9 (12:40) 2.3 (00:00) 6.6 10.83 (15:00) 5.83 (15:00) 3.4 0 0.1 0 3.3
29-03-2020 19.8 (17:10) 2.1 (00:00) 10.9 5.56 (09:50) 4.17 (09:50) 0 0 0 0 0
28-03-2020 17 (17:50) -0.4 (00:00) 8.3 5.28 (14:40) 3.33 (10:30) 0 0 0 0 0
27-03-2020 10.8 (16:20) 3.1 (00:00) 7 9.44 (12:00) 6.11 (13:50) 4.6 0 4.6 0 0
26-03-2020 17.3 (16:40) 0.4 (00:00) 8.8 10 (16:10) 4.17 (18:10) 0 0 0 0 0
25-03-2020 17.7 (16:40) 3.2 (00:00) 10.5 5.56 (19:40) 2.78 (17:50) 0 0 0 0 0
24-03-2020 15.3 (14:10) 8.3 (00:00) 11.8 7.78 (12:00) 5 (14:50) 1.8 1.8 0 0 0
23-03-2020 15.1 (15:00) 8.3 (00:00) 11.7 14.44 (16:00) 9.17 (16:10) 5.7 0.5 2.3 2.9 0
22-03-2020 15.1 (13:50) 1.6 (07:20) 8.4 7.22 (16:40) 3.61 (16:30) 5.4 0 0 0.7 4.7
21-03-2020 11.2 (16:20) 6.8 (00:00) 9 8.61 (00:30) 4.72 (00:20) 0.5 0 0.4 0.1 0
20-03-2020 14.7 (15:50) 7.8 (00:00) 11.3 11.67 (02:40) 6.39 (17:50) 0 0 0 0 0
19-03-2020 16.7 (15:20) 7.1 (00:00) 11.9 9.72 (09:50) 6.94 (09:50) 0 0 0 0 0
18-03-2020 17.2 (17:00) 5.9 (00:00) 11.6 5.83 (14:30) 3.61 (13:00) 0 0 0 0 0
17-03-2020 -- (--) -- (--) -- 11.39 (17:30) 8.06 (17:30) 0 0 0 0 0
16-03-2020 11.4 (14:00) 2.5 (00:00) 6.9 8.61 (03:50) 3.89 (17:50) 12.3 11.1 0 1.1 0.1
15-03-2020 20.5 (15:20) 6.7 (00:00) 13.6 10 (20:20) 5 (19:50) 7.6 0 0 0.2 7.4
14-03-2020 23.4 (16:40) 7.5 (00:00) 15.4 4.72 (05:00) 3.06 (02:20) 0 0 0 0 0
13-03-2020 24 (17:10) 8.1 (08:00) 16.1 5.28 (14:20) 2.78 (18:40) 0 0 0 0 0
12-03-2020 26.8 (15:50) 5.6 (00:00) 16.2 6.94 (10:00) 5 (10:00) 0 0 0 0 0
11-03-2020 26.8 (17:10) 5.9 (00:00) 16.3 5.56 (08:50) 4.17 (08:50) 0 0 0 0 0
10-03-2020 23.8 (17:40) 2.4 (00:00) 13.1 5.28 (18:20) 3.61 (09:40) 0 0 0 0 0
09-03-2020 19.4 (16:40) 4.7 (00:00) 12 6.67 (16:10) 4.17 (17:20) 0 0 0 0 0
08-03-2020 18.2 (15:00) -0.3 (00:00) 9 6.39 (15:50) 4.44 (09:30) 0 0 0 0 0

Gráficas

Temp. máximas Temp. mínimas Temp. medias Precipitaciones Rachas de viento máximas Velocidades máximas media en intervalos de 10 minutos

Datos horarios

Fecha y hora oficial Temperatura (ºC) Velocidad del viento (km/h) Dirección del viento Racha (km/h) Dirección de racha Precipitación (mm) Presión (hPa) Tendencia (hPa) Humedad (%)
2020-04-06 23:00:00 15 3 Norte 8 Norte 0 -- -- 75
2020-04-06 22:00:00 14.9 3 Norte 10 Norte 0 -- -- 69
2020-04-06 21:00:00 16.3 5 Norte 9 Norte 0 -- -- 62
2020-04-06 20:00:00 17.4 4 Norte 13 Norte 0 -- -- 59
2020-04-06 19:00:00 18.3 6 Norte 12 Norte 0 -- -- 56
2020-04-06 18:00:00 18.8 5 Norte 17 Norte 0 -- -- 56
2020-04-06 17:00:00 19.5 5 Norte 15 Norte 0 -- -- 53
2020-04-06 16:00:00 19.3 9 Norte 15 Norte 0 -- -- 51
2020-04-06 15:00:00 19.3 5 Norte 14 Norte 0 -- -- 53
2020-04-06 14:00:00 17.8 7 Norte 14 Norte 0 -- -- 60
2020-04-06 13:00:00 16.9 8 Norte 22 Norte 0 -- -- 70
2020-04-06 12:00:00 16.1 8 Norte 19 Norte 0 -- -- 74
2020-04-06 11:00:00 13.6 8 Norte 14 Norte 0 -- -- 85
2020-04-06 10:00:00 12.4 8 Norte 17 Norte 0.1 -- -- 88
2020-04-06 09:00:00 11.9 9 Norte 20 Norte 0.6 -- -- 88
2020-04-06 08:00:00 11.9 12 Norte 20 Norte 0.1 -- -- 87
2020-04-06 07:00:00 12.4 12 Norte 16 Norte 0 -- -- 85
2020-04-06 06:00:00 12.3 8 Norte 16 Norte 0 -- -- 86
2020-04-06 05:00:00 12.6 6 Norte 13 Norte 0.4 -- -- 83
2020-04-06 04:00:00 12.8 6 Norte 12 Norte 0.1 -- -- 77
2020-04-06 03:00:00 12.8 6 Norte 13 Norte 0 -- -- 74
2020-04-06 02:00:00 12.7 9 Norte 15 Norte 0 -- -- 72
2020-04-06 01:00:00 13.2 5 Norte 10 Norte 0 -- -- 68
2020-04-06 00:00:00 13.6 4 Norte 8 Norte 0 -- -- 63
2020-04-05 23:00:00 15.1 3 Norte 10 Norte 0 -- -- 57
2020-04-05 22:00:00 16.2 3 Norte 10 Norte 0 -- -- 53
2020-04-05 21:00:00 17.4 0 Calma 5 Norte 0 -- -- 52
2020-04-05 20:00:00 18.9 4 Norte 18 Norte 0 -- -- 43
2020-04-05 19:00:00 21.4 3 Norte 15 Norte 0 -- -- 38
2020-04-05 18:00:00 22.1 6 Norte 19 Norte 0 -- -- 38
2020-04-05 17:00:00 20.8 7 Norte 19 Norte 0 -- -- 40
2020-04-05 16:00:00 20.5 9 Norte 20 Norte 0 -- -- 40
2020-04-05 15:00:00 19.8 8 Norte 16 Norte 0 -- -- 43
2020-04-05 14:00:00 19.2 8 Norte 21 Norte 0 -- -- 43
2020-04-05 13:00:00 17.9 10 Norte 20 Norte 0 -- -- 49
2020-04-05 12:00:00 16.1 10 Norte 21 Norte 0 -- -- 57
2020-04-05 11:00:00 14 9 Norte 18 Norte 0 -- -- 62
2020-04-05 10:00:00 12.2 11 Norte 22 Norte 0 -- -- 67
2020-04-05 09:00:00 9.8 16 Norte 26 Norte 0 -- -- 76
2020-04-05 08:00:00 8.6 9 Norte 23 Norte 0 -- -- 78
2020-04-05 07:00:00 9.8 14 Norte 26 Norte 0 -- -- 75
2020-04-05 06:00:00 10.1 12 Norte 25 Norte 0 -- -- 75
2020-04-05 05:00:00 10.1 14 Norte 25 Norte 0 -- -- 75
2020-04-05 04:00:00 10.4 14 Norte 30 Norte 0 -- -- 76
2020-04-05 03:00:00 10.6 13 Norte 22 Norte 0.2 -- -- 73
2020-04-05 02:00:00 11.4 12 Norte 24 Norte 0 -- -- 66
2020-04-05 01:00:00 12 15 Norte 35 Norte 0 -- -- 60
2020-04-05 00:00:00 12.7 19 Norte 41 Norte 0 -- -- 56
2020-04-04 23:00:00 13 19 Norte 40 Norte 0 -- -- 54
2020-04-04 22:00:00 13.5 21 Norte 40 Norte 0 -- -- 50
2020-04-04 21:00:00 13.9 18 Norte 33 Norte 0 -- -- 48
2020-04-04 20:00:00 15.1 18 Norte 36 Norte 0 -- -- 44
2020-04-04 19:00:00 16.6 17 Norte 33 Norte 0 -- -- 41
2020-04-04 18:00:00 17.6 17 Norte 32 Norte 0 -- -- 39
2020-04-04 17:00:00 18.1 16 Norte 35 Norte 0 -- -- 37
2020-04-04 16:00:00 18.8 20 Norte 36 Norte 0 -- -- 36
2020-04-04 15:00:00 17.9 21 Norte 46 Norte 0 -- -- 37
2020-04-04 14:00:00 17.3 25 Norte 52 Norte 0 -- -- 38
2020-04-04 13:00:00 -- 21 Norte 42 Norte 0 -- -- --
2020-04-04 12:00:00 15.5 18 Norte 28 Norte 0 -- -- 52
2020-04-04 11:00:00 12.1 18 Norte 28 Norte 0 -- -- 66
2020-04-04 10:00:00 9 12 Norte 20 Norte 0 -- -- 76
2020-04-04 09:00:00 5.6 11 Norte 18 Norte 0 -- -- 84
2020-04-04 08:00:00 4.4 9 Norte 14 Norte 0 -- -- 86
2020-04-04 07:00:00 4.5 9 Norte 15 Norte 0 -- -- 84
2020-04-04 06:00:00 4.2 8 Norte 16 Norte 0 -- -- 82
2020-04-04 05:00:00 4.3 10 Norte 26 Norte 0 -- -- 81
2020-04-04 04:00:00 5 13 Norte 20 Norte 0 -- -- 78
2020-04-04 03:00:00 5.9 10 Norte 21 Norte 0 -- -- 76
2020-04-04 02:00:00 5.8 12 Norte 18 Norte 0 -- -- 78
2020-04-04 01:00:00 6.5 8 Norte 13 Norte 0 -- -- 73
2020-04-04 00:00:00 7.5 5 Norte 8 Norte 0 -- -- 73
2020-04-03 23:00:00 8.8 4 Norte 10 Norte 0 -- -- 66
2020-04-03 22:00:00 9 2 Norte 4 Norte 0 -- -- 66
2020-04-03 21:00:00 12.4 0 Calma 4 Norte 0 -- -- 47
2020-04-03 20:00:00 17.1 3 Norte 6 Norte 0 -- -- 32
2020-04-03 19:00:00 17.6 4 Norte 11 Norte 0 -- -- 31
2020-04-03 18:00:00 17.7 5 Norte 12 Norte 0 -- -- 32
2020-04-03 17:00:00 17.5 6 Norte 13 Norte 0 -- -- 32
2020-04-03 16:00:00 16.8 5 Norte 12 Norte 0 -- -- 34
2020-04-03 15:00:00 16.5 6 Norte 10 Norte 0 -- -- 36
2020-04-03 14:00:00 15.3 6 Norte 13 Norte 0 -- -- 38
2020-04-03 13:00:00 14.6 4 Norte 10 Norte 0 -- -- 42
2020-04-03 12:00:00 12.9 4 Norte 11 Norte 0 -- -- 47
2020-04-03 11:00:00 11 3 Norte 9 Norte 0 -- -- 57
2020-04-03 10:00:00 8.4 5 Norte 9 Norte 0 -- -- 74
2020-04-03 09:00:00 5.4 5 Norte 9 Norte 0 -- -- 88
2020-04-03 08:00:00 3.3 0 Calma 5 Este 0 -- -- 87
2020-04-03 07:00:00 4.1 2 Norte 7 Norte 0 -- -- 82
2020-04-03 06:00:00 6.5 2 Norte 10 Norte 0 -- -- 75
2020-04-03 05:00:00 7.5 8 Norte 13 Norte 0 -- -- 73
2020-04-03 04:00:00 7.6 3 Norte 6 Norte 0 -- -- 70
2020-04-03 03:00:00 9.3 4 Norte 14 Norte 0 -- -- 63
2020-04-03 02:00:00 9.7 9 Norte 15 Norte 0 -- -- 62
2020-04-03 01:00:00 10.7 8 Norte 14 Norte 0 -- -- 60
2020-04-03 00:00:00 11 4 Norte 11 Norte 0 -- -- 60
2020-04-02 23:00:00 11.8 5 Norte 10 Norte 0 -- -- 56
2020-04-02 22:00:00 12.1 5 Norte 15 Norte 0 -- -- 54
2020-04-02 21:00:00 13 8 Norte 25 Norte 0 -- -- 50
2020-04-02 20:00:00 14.1 10 Norte 23 Norte 0 -- -- 46
2020-04-02 19:00:00 15.9 15 Norte 34 Norte 0 -- -- 42
2020-04-02 18:00:00 16.1 13 Norte 29 Norte 0 -- -- 43
2020-04-02 17:00:00 16.8 12 Norte 30 Norte 0 -- -- 41
2020-04-02 16:00:00 15.7 6 Norte 19 Norte 0 -- -- 40
2020-04-02 15:00:00 15.5 7 Norte 21 Norte 0 -- -- 44
2020-04-02 14:00:00 15 8 Norte 18 Norte 0 -- -- 49
2020-04-02 13:00:00 13.6 4 Norte 14 Norte 0 -- -- 54
2020-04-02 12:00:00 10.8 4 Norte 9 Norte 0 -- -- 65
2020-04-02 11:00:00 7.9 7 Norte 12 Norte 0 -- -- 81
2020-04-02 10:00:00 4.7 4 Norte 11 Norte 0 -- -- 89
2020-04-02 09:00:00 2.7 9 Norte 14 Norte 0 -- -- 92
2020-04-02 08:00:00 1.8 4 Norte 7 Norte 0 -- -- 92
2020-04-02 07:00:00 1.6 0 Calma 6 Norte 0 -- -- 92
2020-04-02 06:00:00 2.8 3 Norte 13 Norte 0 -- -- 92
2020-04-02 05:00:00 2.3 7 Norte 11 Norte 0 -- -- 91
2020-04-02 04:00:00 2.9 3 Norte 7 Norte 0 -- -- 91
2020-04-02 03:00:00 2.7 3 Norte 4 Norte 0 -- -- 90
2020-04-02 02:00:00 3.5 3 Norte 5 Norte 0 -- -- 90
2020-04-02 01:00:00 3.5 0 Calma -- -- 0 -- -- 88
2020-04-02 00:00:00 4.6 0 Calma -- -- 0 -- -- 86
2020-04-01 23:00:00 5.9 0 Calma 4 Norte 0 -- -- 80
2020-04-01 22:00:00 8.1 0 Calma 6 Norte 0 -- -- 72
2020-04-01 21:00:00 10.2 5 Norte 9 Norte 0 -- -- 62
2020-04-01 20:00:00 13.7 5 Norte 17 Norte 0 -- -- 48
2020-04-01 19:00:00 14.8 9 Norte 22 Norte 0 -- -- 45
2020-04-01 18:00:00 14.2 11 Norte 24 Norte 0 -- -- 51
2020-04-01 17:00:00 14.5 12 Norte 19 Norte 0 -- -- 50
2020-04-01 16:00:00 13.5 0 Calma 19 Norte 0 -- -- 56
2020-04-01 15:00:00 12.7 6 Norte 15 Norte 0.1 -- -- 63
2020-04-01 14:00:00 13.6 7 Norte 22 Norte 0 -- -- 56
2020-04-01 13:00:00 13.2 9 Norte 20 Norte 0 -- -- 64
2020-04-01 12:00:00 10.8 8 Norte 16 Norte 0 -- -- 80
2020-04-01 11:00:00 10.4 3 Norte 8 Norte 0 -- -- 84
2020-04-01 10:00:00 9.1 0 Calma 7 Norte 1.1 -- -- 91
2020-04-01 09:00:00 8.2 5 Norte 9 Norte 0 -- -- 91
2020-04-01 08:00:00 7.8 5 Norte 9 Norte 0 -- -- 91
2020-04-01 07:00:00 7.4 6 Norte 11 Este 0 -- -- 89
2020-04-01 06:00:00 8.2 7 Este 14 Este 0 -- -- 88
2020-04-01 05:00:00 8.5 6 Sudeste 11 Sudeste 0 -- -- 87
2020-04-01 04:00:00 8.6 6 Este 17 Sudeste 0 -- -- 87
2020-04-01 03:00:00 8.8 11 Sudeste 18 Sudeste 0 -- -- 85
2020-04-01 02:00:00 8.8 8 Este 20 Este 0 -- -- 83
2020-04-01 01:00:00 9.5 6 Sudeste 25 Sudeste 0 -- -- 79
2020-04-01 00:00:00 9.3 10 Sudeste 30 Sudeste 0.2 -- -- 89
2020-03-31 23:00:00 8.9 17 Sudeste 25 Sudeste 1.3 -- -- 89
2020-03-31 22:00:00 9.2 7 Sudeste 14 Sur 6.8 -- -- 86
2020-03-31 21:00:00 9.8 7 Sur 25 Sur 4 -- -- 85
2020-03-31 20:00:00 11.3 6 Este 13 Sudeste 0.2 -- -- 82
2020-03-31 19:00:00 11.8 4 Norte 12 Norte 0.1 -- -- 79
2020-03-31 18:00:00 10.4 8 Norte 14 Norte 1.9 -- -- 79
2020-03-31 17:00:00 11.2 5 Oeste 34 Sur 3.5 -- -- 74
2020-03-31 16:00:00 11.6 15 Sudeste 35 Sudeste 0.6 -- -- 79
2020-03-31 15:00:00 11.6 16 Sudeste 35 Sudeste 0.3 -- -- 74
2020-03-31 14:00:00 12.6 14 Sur 36 Sudeste 0 -- -- 68
2020-03-31 13:00:00 10.6 17 Sur 39 Sudeste -- -- -- 81
2020-03-31 12:00:00 7.6 10 Este 23 Sudeste 1.5 -- -- 89
2020-03-31 11:00:00 6.7 14 Este 25 Sudeste 1.9 -- -- 90
2020-03-31 10:00:00 5.9 10 Este 15 Este 2.4 -- -- 93
2020-03-31 09:00:00 4.4 8 Nordeste 17 Nordeste 2 -- -- 92
2020-03-31 08:00:00 3.7 10 Nordeste 21 Nordeste 0.8 -- -- 92
2020-03-31 07:00:00 3.3 11 Nordeste 18 Nordeste 0.3 -- -- 91
2020-03-31 06:00:00 3.3 9 Nordeste 18 Nordeste 0.1 -- -- 91
2020-03-31 05:00:00 3 9 Nordeste 20 Nordeste 0 -- -- 91
2020-03-31 04:00:00 2.8 9 Nordeste 17 Nordeste 0 -- -- 91
2020-03-31 03:00:00 2.6 7 Este 15 Nordeste 0 -- -- 91
2020-03-31 02:00:00 2.5 6 Nordeste 24 Nordeste 0.1 -- -- 91
2020-03-31 01:00:00 2.3 9 Nordeste 20 Nordeste 0.7 -- -- 90
2020-03-31 00:00:00 2.4 6 Nordeste 14 Nordeste 1.5 -- -- 89
2020-03-30 23:00:00 2.5 5 Este 21 Este 1.1 -- -- 86
2020-03-30 22:00:00 3.3 10 Nordeste 27 Nordeste 0.7 -- -- 81
2020-03-30 21:00:00 4.1 11 Nordeste 30 Nordeste 0 -- -- 73
2020-03-30 20:00:00 4.8 13 Nordeste 35 Nordeste 0 -- -- 67
2020-03-30 19:00:00 5.7 13 Nordeste 35 Nordeste 0 -- -- 64
2020-03-30 18:00:00 6.4 15 Nordeste 36 Nordeste 0 -- -- 60
2020-03-30 17:00:00 6.6 16 Nordeste 36 Nordeste 0 -- -- 60
2020-03-30 16:00:00 8 13 Nordeste 37 Nordeste 0 -- -- 57
2020-03-30 15:00:00 8.1 21 Nordeste 39 Nordeste 0 -- -- 57
2020-03-30 14:00:00 9.6 13 Nordeste 30 Nordeste 0 -- -- 50
2020-03-30 13:00:00 9.9 13 Nordeste 33 Nordeste 0 -- -- 50
2020-03-30 12:00:00 9.3 12 Nordeste 26 Nordeste 0 -- -- 57
2020-03-30 11:00:00 8.1 10 Nordeste 24 Nordeste 0 -- -- 61
2020-03-30 10:00:00 7.7 9 Este 21 Este 0 -- -- 66
2020-03-30 09:00:00 7.5 5 Nordeste 14 Este 0.1 -- -- 67
2020-03-30 08:00:00 8.2 7 Este 20 Nordeste 0 -- -- 61
2020-03-30 07:00:00 8.8 7 Nordeste 16 Nordeste 0 -- -- 63
2020-03-30 06:00:00 9.1 3 Nordeste 14 Nordeste 0 -- -- 64
2020-03-30 05:00:00 8.6 5 Nordeste 11 Nordeste 0 -- -- 69
2020-03-30 04:00:00 8.7 3 Este 10 Sudeste 0 -- -- 68
2020-03-30 03:00:00 8.9 0 Calma 5 Nordeste 0 -- -- 71
2020-03-30 02:00:00 9.7 0 Calma 4 Oeste 0 -- -- 69
2020-03-30 01:00:00 9.6 0 Calma 6 Sur 0 -- -- 70
2020-03-30 00:00:00 8.7 0 Calma 5 Norte 0 -- -- 72
2020-03-29 23:00:00 9.2 2 Noroeste 5 Noroeste 0 -- -- 67
2020-03-29 22:00:00 10.8 3 Norte 5 Norte 0 -- -- 57
2020-03-29 21:00:00 14.2 2 Noroeste 7 Oeste 0 -- -- 42
2020-03-29 20:00:00 17.4 3 Oeste 11 Oeste 0 -- -- 36
2020-03-29 19:00:00 19.3 4 Sudoeste 14 Noroeste 0 -- -- 29
2020-03-29 18:00:00 19.5 6 Noroeste 17 Noroeste 0 -- -- 30
2020-03-29 17:00:00 19.7 4 Noroeste 15 Noroeste 0 -- -- 31
2020-03-29 16:00:00 18.9 3 Noroeste 17 Oeste 0 -- -- 33
2020-03-29 15:00:00 17.8 8 Noroeste 18 Noroeste 0 -- -- 36
2020-03-29 14:00:00 16.5 7 Oeste 17 Oeste 0 -- -- 39
2020-03-29 13:00:00 15 4 Noroeste 11 Oeste 0 -- -- 44
2020-03-29 12:00:00 12.8 2 Este 7 Sudeste 0 -- -- 50
2020-03-29 11:00:00 9.6 5 Sudeste 12 Sudeste 0 -- -- 67
2020-03-29 10:00:00 5.5 13 Sudeste 20 Sudeste 0 -- -- 80
2020-03-29 09:00:00 3.1 8 Sudeste 13 Sudeste 0 -- -- 87
2020-03-29 08:00:00 2.2 6 Este 13 Este 0 -- -- 87
2020-03-29 07:00:00 2.3 9 Este 13 Sudeste 0 -- -- 87
2020-03-29 06:00:00 2.5 8 Este 15 Este 0 -- -- 84
2020-03-29 05:00:00 3 8 Este 12 Sudeste 0 -- -- 82
2020-03-29 03:00:00 4.1 5 Este 8 Este 0 -- -- 79
2020-03-29 01:00:00 4.6 4 Este 11 Este 0 -- -- 79
2020-03-29 00:00:00 4 2 Sudeste 5 Este 0 -- -- 83
2020-03-28 23:00:00 4.9 0 Calma 4 Norte 0 -- -- 80
2020-03-28 22:00:00 5.9 0 Calma 4 Nordeste 0 -- -- 75
2020-03-28 21:00:00 8.1 0 Calma 6 Norte 0 -- -- 64
2020-03-28 20:00:00 10.8 4 Norte 8 Noroeste 0 -- -- 47
2020-03-28 19:00:00 15.5 3 Oeste 10 Oeste 0 -- -- 33
2020-03-28 18:00:00 16.4 0 Calma 11 Oeste 0 -- -- 31
2020-03-28 17:00:00 16.4 4 Noroeste 11 Sur 0 -- -- 31
2020-03-28 16:00:00 15.7 4 Este 19 Sudeste 0 -- -- 31
2020-03-28 15:00:00 15.4 7 Sur 19 Sur 0 -- -- 32
2020-03-28 14:00:00 14.6 8 Sudeste 19 Sur 0 -- -- 32
2020-03-28 13:00:00 13.5 6 Este 14 Sudeste 0 -- -- 30
2020-03-28 12:00:00 12 4 Este 18 Este 0 -- -- 36
2020-03-28 11:00:00 10 10 Sudeste 18 Sudeste 0 -- -- 51
2020-03-28 10:00:00 6.9 10 Este 15 Este 0 -- -- 75
2020-03-28 09:00:00 3.4 10 Sudeste 15 Este 0 -- -- 88
2020-03-28 08:00:00 0.2 6 Sudeste 9 Este 0 -- -- 91
2020-03-28 07:00:00 -0.2 0 Calma 9 Este 0 -- -- 91
2020-03-28 06:00:00 1 7 Este 12 Este 0 -- -- 91
2020-03-28 05:00:00 1.1 8 Este 12 Este 0 -- -- 91
2020-03-28 04:00:00 1.1 5 Este 9 Este 0 -- -- 91
2020-03-28 03:00:00 0.8 0 Calma 4 Sur 0 -- -- 90
2020-03-28 02:00:00 1.3 3 Este 7 Este 0 -- -- 89
2020-03-28 01:00:00 1.9 2 Nordeste 8 Nordeste 0 -- -- 85
2020-03-28 00:00:00 3.5 4 Nordeste 9 Nordeste 0 -- -- 84
2020-03-27 23:00:00 3.5 3 Nordeste 7 Nordeste 0 -- -- 84
2020-03-27 22:00:00 4.7 3 Este 10 Sudeste 0 -- -- 78
2020-03-27 21:00:00 5.8 5 Este 8 Este 0 -- -- 74
2020-03-27 20:00:00 6.9 6 Este 17 Sudeste 0 -- -- 67
2020-03-27 19:00:00 8.8 10 Sudeste 19 Sudeste 0 -- -- 60
2020-03-27 18:00:00 9.7 11 Sudeste 28 Sudeste 0 -- -- 57
2020-03-27 17:00:00 9 15 Sudeste 28 Sudeste 0 -- -- 60
2020-03-27 16:00:00 9.6 21 Sudeste 33 Sudeste 0 -- -- 56
2020-03-27 15:00:00 9.7 16 Sudeste 33 Sudeste 0 -- -- 62
2020-03-27 14:00:00 7.7 21 Este 32 Este 0 -- -- 69
2020-03-27 13:00:00 6.3 9 Este 28 Sudeste 0 -- -- 82
2020-03-27 12:00:00 4.7 17 Sudeste 34 Sudeste 1.9 -- -- 86
2020-03-27 11:00:00 3.4 14 Este 25 Nordeste 2.4 -- -- 86
2020-03-27 10:00:00 3.7 13 Este 32 Este 0.3 -- -- 82
2020-03-27 09:00:00 4.3 13 Nordeste 28 Este 0 -- -- 75
2020-03-27 08:00:00 4.6 12 Nordeste 29 Nordeste 0 -- -- 70
2020-03-27 07:00:00 5.3 13 Nordeste 26 Nordeste 0 -- -- 64
2020-03-27 06:00:00 6.3 12 Este 24 Este 0 -- -- 64
2020-03-27 05:00:00 6.3 12 Este 21 Este 0 -- -- 66
2020-03-27 04:00:00 5.3 2 Este 12 Este 0 -- -- 68
2020-03-27 03:00:00 5.4 0 Calma 10 Este 0 -- -- 65
2020-03-27 02:00:00 6 7 Este 14 Este 0 -- -- 61
2020-03-27 01:00:00 6.1 4 Este 9 Este 0 -- -- 59
2020-03-27 00:00:00 6.2 3 Este 9 Este 0 -- -- 54
2020-03-26 23:00:00 6.6 3 Sudeste 14 Este 0 -- -- 51
2020-03-26 22:00:00 8.3 7 Nordeste 14 Nordeste 0 -- -- 45
2020-03-26 21:00:00 8.6 5 Sudeste 14 Nordeste 0 -- -- 42
2020-03-26 20:00:00 11.2 9 Nordeste 23 Nordeste 0 -- -- 34
2020-03-26 19:00:00 13.8 8 Nordeste 27 Nordeste 0 -- -- 29
2020-03-26 18:00:00 15.5 14 Nordeste 29 Nordeste 0 -- -- 27
2020-03-26 17:00:00 17 11 Nordeste 36 Nordeste 0 -- -- 25
2020-03-26 16:00:00 17 5 Norte 24 Nordeste 0 -- -- 25
2020-03-26 15:00:00 16.4 5 Este 21 Nordeste 0 -- -- 24
2020-03-26 14:00:00 15.7 5 Noroeste 14 Oeste 0 -- -- 28
2020-03-26 13:00:00 14 4 Norte 15 Noroeste 0 -- -- 31
2020-03-26 12:00:00 12.7 2 Norte 10 Noroeste 0 -- -- 34
2020-03-26 11:00:00 10.5 3 Sudoeste 8 Oeste 0 -- -- 45
2020-03-26 10:00:00 8.8 0 Calma 5 Este 0 -- -- 57
2020-03-26 09:00:00 5 3 Sudeste 10 Este 0 -- -- 87
2020-03-26 08:00:00 1.6 8 Este 12 Sudeste 0 -- -- 93
2020-03-26 07:00:00 0.7 3 Nordeste 6 Este 0 -- -- 92
2020-03-26 06:00:00 2.3 2 Sudeste 9 Este 0 -- -- 92
2020-03-26 05:00:00 3.2 0 Calma 8 Norte 0 -- -- 92
2020-03-26 04:00:00 4.9 4 Norte 8 Norte 0 -- -- 91
2020-03-26 03:00:00 4.9 5 Noroeste 7 Norte 0 -- -- 90
2020-03-26 02:00:00 5.9 4 Noroeste 8 Noroeste 0 -- -- 89
2020-03-26 01:00:00 6.8 4 Oeste 7 Oeste 0 -- -- 88
2020-03-26 00:00:00 6.8 3 Oeste 7 Noroeste 0 -- -- 84
2020-03-25 23:00:00 9.1 4 Este 8 Este 0 -- -- 79
2020-03-25 22:00:00 10.2 4 Este 8 Este 0 -- -- 74
2020-03-25 21:00:00 11.7 5 Oeste 16 Oeste 0 -- -- 65
2020-03-25 20:00:00 13.7 9 Oeste 20 Oeste 0 -- -- 53
2020-03-25 19:00:00 15.6 6 Oeste 19 Sudoeste 0 -- -- 46
2020-03-25 18:00:00 17.2 8 Oeste 20 Oeste 0 -- -- 42
2020-03-25 17:00:00 17.5 8 Oeste 19 Oeste 0 -- -- 40
2020-03-25 16:00:00 17.1 5 Oeste 15 Noroeste 0 -- -- 40
2020-03-25 15:00:00 16.6 5 Noroeste 14 Oeste 0 -- -- 39
2020-03-25 14:00:00 15.5 3 Sudoeste 17 Oeste 0 -- -- 45
2020-03-25 13:00:00 14.6 4 Oeste 17 Sudoeste 0 -- -- 48
2020-03-25 12:00:00 13.8 5 Sudoeste 13 Sudoeste 0 -- -- 52
2020-03-25 11:00:00 12.4 6 Sur 19 Sudeste 0 -- -- 58
2020-03-25 10:00:00 10.4 5 Sudeste 13 Sudeste 0 -- -- 68
2020-03-25 09:00:00 7.8 5 Sudeste 7 Sudeste 0 -- -- 81
2020-03-25 08:00:00 3.9 0 Calma 4 Noroeste 0 -- -- 87
2020-03-25 07:00:00 3.8 0 Calma 3 Norte 0 -- -- 83
2020-03-25 06:00:00 6.7 3 Este 9 Este 0 -- -- 77
2020-03-25 05:00:00 7.6 4 Sudeste 10 Sur 0 -- -- 75
2020-03-25 04:00:00 8 0 Calma 8 Sur 0 -- -- 76
2020-03-25 03:00:00 8.3 5 Sudeste 10 Sudeste 0 -- -- 74
2020-03-25 02:00:00 8.8 5 Sudeste 13 Sudeste 0 -- -- 71
2020-03-25 01:00:00 9 5 Sudeste 12 Sudeste 0 -- -- 70
2020-03-25 00:00:00 9.3 6 Sudeste 18 Sudeste 0 -- -- 69
2020-03-24 23:00:00 10 7 Sudeste 13 Sudeste 0 -- -- 66
2020-03-24 22:00:00 10.6 4 Este 18 Sudeste 0 -- -- 65
2020-03-24 21:00:00 11.2 7 Sudeste 18 Sur 0 -- -- 63
2020-03-24 20:00:00 12 9 Sudeste 14 Sudeste 0 -- -- 60
2020-03-24 19:00:00 12.5 7 Este 13 Sudeste 0 -- -- 59
2020-03-24 18:00:00 13.3 7 Sudeste 24 Sur 0 -- -- 56
2020-03-24 17:00:00 14.3 13 Sudeste 19 Sudeste 0 -- -- 52
2020-03-24 16:00:00 14.8 10 Sudeste 22 Sudeste 0 -- -- 53
2020-03-24 15:00:00 13.9 13 Sudeste 26 Sudeste 0 -- -- 56
2020-03-24 14:00:00 14.3 15 Sudeste 23 Sudeste 0 -- -- 56
2020-03-24 13:00:00 14.3 13 Este 27 Este 0 -- -- 53
2020-03-24 12:00:00 13.8 17 Este 28 Este 0 -- -- 53
2020-03-24 11:00:00 13.1 13 Este 26 Nordeste 0 -- -- 62
2020-03-24 10:00:00 10.5 4 Sudeste 12 Este 0 -- -- 76
2020-03-24 09:00:00 9.2 2 Sudeste 11 Sudeste 0 -- -- 80
2020-03-24 08:00:00 8.9 3 Sudeste 8 Nordeste 0 -- -- 81
2020-03-24 07:00:00 8.6 4 Este 13 Este 0 -- -- 82
2020-03-24 06:00:00 8.4 8 Este 13 Este 0.9 -- -- 84
2020-03-24 05:00:00 8.7 10 Nordeste 17 Nordeste 0.9 -- -- 81
2020-03-24 04:00:00 9.2 5 Este 12 Nordeste 0 -- -- 77
2020-03-24 03:00:00 9 4 Este 8 Este 0 -- -- 78
2020-03-24 02:00:00 9.4 2 Este 9 Este 0 -- -- 76
2020-03-24 01:00:00 9.3 5 Este 10 Sudeste 0 -- -- 79
2020-03-24 00:00:00 8.9 8 Este 11 Este 0 -- -- 80
2020-03-23 23:00:00 9 5 Sudeste 9 Sudeste 0 -- -- 78
2020-03-23 22:00:00 9.8 3 Este 15 Sudeste 0 -- -- 76
2020-03-23 21:00:00 10.2 8 Este 13 Este 0 -- -- 75
2020-03-23 20:00:00 10.6 9 Este 17 Este 0 -- -- 70
2020-03-23 19:00:00 12.2 12 Este 31 Este 0 -- -- 63
2020-03-23 18:00:00 13.5 26 Sudeste 41 Sudeste 0 -- -- 58
2020-03-23 17:00:00 13.1 23 Sudeste 45 Sudeste 0 -- -- 62
2020-03-23 16:00:00 11.9 32 Sudeste 52 Sudeste 0.2 -- -- 63
2020-03-23 15:00:00 15 8 Nordeste 15 Nordeste 0.9 -- -- 63
2020-03-23 14:00:00 12.4 8 Este 29 Sudeste 0.9 -- -- 68
2020-03-23 13:00:00 11.6 9 Sudeste 34 Este 0.9 -- -- 79
2020-03-23 12:00:00 12.5 14 Este 26 Este 0 -- -- 68
2020-03-23 11:00:00 10.5 6 Nordeste 21 Nordeste 1.9 -- -- 86
2020-03-23 10:00:00 9.3 0 Calma 5 Este 0.4 -- -- 82
2020-03-23 09:00:00 8.9 0 Calma 9 Sudeste 0 -- -- 84
2020-03-23 08:00:00 8.5 0 Calma 11 Este 0 -- -- 85
2020-03-23 07:00:00 8.6 9 Este 21 Este 0 -- -- 84
2020-03-23 06:00:00 8.3 5 Este 9 Este 0.5 -- -- 88
2020-03-23 05:00:00 8.4 7 Este 13 Este 0 -- -- 89
2020-03-23 04:00:00 8.7 4 Este 9 Este 0 -- -- 90
2020-03-23 03:00:00 8.7 0 Calma 8 Este 0 -- -- 90
2020-03-23 02:00:00 8.7 3 Este 6 Sudeste 0 -- -- 90
2020-03-23 01:00:00 8.7 0 Calma 6 Este 0 -- -- 90
2020-03-23 00:00:00 8.9 4 Sudeste 9 Este 0.9 -- -- 90
2020-03-22 23:00:00 9.1 0 Calma 4 Este 0.2 -- -- 89
2020-03-22 22:00:00 9.1 2 Este 5 Este 0.9 -- -- 89
2020-03-22 21:00:00 9.2 2 Nordeste 12 Sudeste 2.7 -- -- 88
2020-03-22 20:00:00 9.9 0 Calma 6 Norte 0 -- -- 84
2020-03-22 19:00:00 10.3 3 Norte 8 Nordeste 0 -- -- 79
2020-03-22 18:00:00 10.5 3 Este 18 Sudeste 0.4 -- -- 76
2020-03-22 17:00:00 10.7 9 Sudeste 26 Sudeste 0.3 -- -- 72
2020-03-22 16:00:00 13.7 9 Nordeste 20 Nordeste 0 -- -- 50
2020-03-22 15:00:00 14 2 Este 9 Nordeste 0 -- -- 47
2020-03-22 14:00:00 13.9 4 Nordeste 16 Sudeste 0 -- -- 46
2020-03-22 13:00:00 14 6 Sudeste 15 Este 0 -- -- 48
2020-03-22 12:00:00 12.6 2 Sudeste 9 Noroeste 0 -- -- 62
2020-03-22 11:00:00 10.2 4 Sudeste 10 Sudeste 0 -- -- 77
2020-03-22 10:00:00 6.6 6 Sudeste 12 Este 0 -- -- 93
2020-03-22 09:00:00 4.3 8 Este 13 Sudeste 0 -- -- 93
2020-03-22 08:00:00 3.4 6 Sudeste 10 Este 0 -- -- 92
2020-03-22 07:00:00 2.4 3 Este 8 Este 0 -- -- 90
2020-03-22 06:00:00 3.9 5 Este 9 Nordeste 0 -- -- 90
2020-03-22 05:00:00 4.5 6 Este 10 Este 0 -- -- 89
2020-03-22 04:00:00 4.6 4 Este 10 Este 0 -- -- 89
2020-03-22 03:00:00 5.1 6 Este 12 Este 0 -- -- 89
2020-03-22 02:00:00 5.6 5 Este 8 Este 0 -- -- 87
2020-03-22 01:00:00 6.1 2 Este 8 Este 0 -- -- 85
2020-03-22 00:00:00 6.8 6 Este 13 Sudeste 0 -- -- 84
2020-03-21 23:00:00 7.5 11 Sudeste 21 Este 0 -- -- 79
2020-03-21 22:00:00 8.2 13 Este 21 Sudeste 0 -- -- 77
2020-03-21 21:00:00 8.9 11 Sudeste 17 Este 0 -- -- 76
2020-03-21 20:00:00 9.5 7 Sudeste 9 Sudeste 0 -- -- 73
2020-03-21 19:00:00 10.4 5 Sudeste 9 Este 0 -- -- 66
2020-03-21 18:00:00 10.9 3 Sur 10 Sur 0 -- -- 64
2020-03-21 17:00:00 11 4 Sur 10 Este 0 -- -- 64
2020-03-21 16:00:00 10.8 5 Este 10 Este 0.1 -- -- 70
2020-03-21 15:00:00 10.5 0 Calma 9 Noroeste 0 -- -- 75
2020-03-21 14:00:00 9.4 8 Noroeste 13 Noroeste 0 -- -- 84
2020-03-21 13:00:00 9.2 7 Oeste 21 Sudoeste 0 -- -- 84
2020-03-21 12:00:00 10 3 Oeste 14 Sur 0 -- -- 85
2020-03-21 11:00:00 9.9 6 Sur 15 Sudeste 0.1 -- -- 84
2020-03-21 10:00:00 9.5 9 Sudeste 19 Sudeste 0.3 -- -- 84
2020-03-21 09:00:00 8.9 14 Sudeste 22 Sudeste 0 -- -- 82
2020-03-21 08:00:00 7.9 6 Sudeste 17 Sudeste 0 -- -- 82
2020-03-21 07:00:00 8.4 14 Sudeste 20 Sudeste 0 -- -- 81
2020-03-21 06:00:00 8 9 Este 16 Sudeste 0 -- -- 82
2020-03-21 05:00:00 8 11 Sudeste 21 Sudeste 0 -- -- 83
2020-03-21 04:00:00 7.5 12 Este 20 Sudeste 0 -- -- 82
2020-03-21 03:00:00 7.8 13 Este 28 Sudeste 0 -- -- 77
2020-03-21 02:00:00 7.8 14 Sudeste 30 Sudeste 0 -- -- 78
2020-03-21 01:00:00 7.9 11 Sudeste 31 Sudeste 0 -- -- 79
2020-03-21 00:00:00 8 14 Sudeste 21 Sudeste 0 -- -- 83
2020-03-20 23:00:00 8.3 9 Sudeste 20 Sudeste 0 -- -- 80
2020-03-20 22:00:00 9.1 13 Sudeste 20 Sudeste 0 -- -- 77
2020-03-20 21:00:00 10.2 6 Este 21 Este 0 -- -- 70
2020-03-20 20:00:00 11 10 Este 29 Sudeste 0 -- -- 67
2020-03-20 19:00:00 12.3 22 Sudeste 36 Sudeste 0 -- -- 63
2020-03-20 18:00:00 13.9 20 Sudeste 35 Este 0 -- -- 57
2020-03-20 17:00:00 14.6 19 Sudeste 31 Sudeste 0 -- -- 55
2020-03-20 16:00:00 14.4 17 Sudeste 30 Este 0 -- -- 54
2020-03-20 15:00:00 14 21 Sudeste 32 Sudeste 0 -- -- 57
2020-03-20 14:00:00 14.1 21 Sudeste 30 Este 0 -- -- 54
2020-03-20 13:00:00 13.8 14 Sudeste 29 Este 0 -- -- 57
2020-03-20 12:00:00 13.3 18 Sudeste 32 Sudeste 0 -- -- 60
2020-03-20 11:00:00 12.8 19 Sudeste 32 Sudeste 0 -- -- 63
2020-03-20 10:00:00 11.3 17 Sudeste 32 Sudeste 0 -- -- 70
2020-03-20 09:00:00 9.9 14 Sudeste 24 Sudeste 0 -- -- 75
2020-03-20 08:00:00 8.6 8 Sudeste 14 Sudeste 0 -- -- 81
2020-03-20 07:00:00 8 10 Sudeste 19 Sudeste 0 -- -- 80
2020-03-20 06:00:00 8.6 12 Sudeste 22 Sudeste 0 -- -- 78
2020-03-20 05:00:00 8.7 14 Sudeste 25 Sudeste 0 -- -- 77
2020-03-20 04:00:00 9.3 17 Sudeste 25 Sudeste 0 -- -- 76
2020-03-20 03:00:00 9.6 15 Sudeste 42 Sudeste 0 -- -- 76
2020-03-20 02:00:00 10.2 12 Sudeste 19 Sudeste 0 -- -- 74
2020-03-20 01:00:00 10.2 10 Sudeste 23 Sudeste 0 -- -- 73
2020-03-20 00:00:00 10.6 14 Sudeste 21 Sudeste 0 -- -- 72
2020-03-19 23:00:00 11.1 10 Este 17 Este 0 -- -- 67
2020-03-19 22:00:00 11.2 11 Este 23 Sudeste 0 -- -- 66
2020-03-19 21:00:00 12.2 14 Sudeste 21 Sudeste 0 -- -- 63
2020-03-19 20:00:00 12.5 9 Sudeste 26 Sudeste 0 -- -- 61
2020-03-19 19:00:00 13.7 8 Sudeste 24 Sudeste 0 -- -- 56
2020-03-19 18:00:00 15 12 Sudeste 27 Sudeste 0 -- -- 52
2020-03-19 17:00:00 15.9 16 Sudeste 28 Sudeste 0 -- -- 50
2020-03-19 16:00:00 16.7 13 Sudeste 27 Este 0 -- -- 47
2020-03-19 15:00:00 15.8 18 Sudeste 29 Sudeste 0 -- -- 50
2020-03-19 14:00:00 15.3 17 Sudeste 30 Este 0 -- -- 50
2020-03-19 13:00:00 14.9 17 Sudeste 29 Sudeste 0 -- -- 53
2020-03-19 12:00:00 13.9 17 Sudeste 33 Sudeste 0 -- -- 56
2020-03-19 11:00:00 12.9 19 Sudeste 31 Sudeste 0 -- -- 62
2020-03-19 10:00:00 11 23 Sudeste 35 Sudeste 0 -- -- 67
2020-03-19 09:00:00 8.7 21 Sudeste 28 Sudeste 0 -- -- 76
2020-03-19 08:00:00 7.6 19 Sudeste 26 Sudeste 0 -- -- 80
2020-03-19 07:00:00 7.3 15 Sudeste 21 Sudeste 0 -- -- 83
2020-03-19 06:00:00 7.5 8 Este 17 Sudeste 0 -- -- 85
2020-03-19 05:00:00 7.6 7 Sudeste 12 Este 0 -- -- 84
2020-03-19 04:00:00 7.8 3 Nordeste 8 Este 0 -- -- 83
2020-03-19 03:00:00 8.1 0 Calma 10 Este 0 -- -- 80
2020-03-19 02:00:00 8.5 8 Sudeste 11 Sudeste 0 -- -- 79
2020-03-19 01:00:00 9.1 5 Este 11 Sudeste 0 -- -- 76
2020-03-19 00:00:00 9.7 4 Este 10 Sudeste 0 -- -- 83
2020-03-18 23:00:00 10.5 4 Este 8 Este 0 -- -- 79
2020-03-18 22:00:00 10.6 3 Este 6 Este 0 -- -- 77
2020-03-18 21:00:00 12.5 3 Este 8 Nordeste 0 -- -- 69
2020-03-18 20:00:00 13.6 5 Este 6 Este 0 -- -- 65
2020-03-18 19:00:00 15 4 Sudeste 8 Sudeste 0 -- -- 62
2020-03-18 18:00:00 16.6 4 Sudeste 17 Sudeste 0 -- -- 51
2020-03-18 17:00:00 17.2 10 Este 19 Este 0 -- -- 47
2020-03-18 16:00:00 16.2 11 Sudeste 21 Sudeste 0 -- -- 50
2020-03-18 15:00:00 15.3 11 Sudeste 21 Sudeste 0 -- -- 53
2020-03-18 14:00:00 14.4 11 Sudeste 20 Este 0 -- -- 53
2020-03-18 13:00:00 13.7 13 Este 18 Sudeste 0 -- -- 54
2020-03-18 12:00:00 12.6 6 Sudeste 13 Este 0 -- -- 67
2020-03-18 11:00:00 10.1 0 Calma 4 Oeste 0 -- -- 86
2020-03-18 10:00:00 8.6 2 Sudeste 4 Sudeste 0 -- -- 90
2020-03-18 09:00:00 7 3 Este 5 Nordeste 0 -- -- 92
2020-03-18 08:00:00 6.2 0 Calma 6 Este 0 -- -- 92
2020-03-18 07:00:00 6.7 5 Este 8 Este 0 -- -- 92
2020-03-18 06:00:00 5.9 4 Sudeste 7 Sudeste 0 -- -- 91
2020-03-18 05:00:00 6.2 0 Calma 5 Este 0 -- -- 91
2020-03-18 04:00:00 6.4 0 Calma 5 Sudeste 0 -- -- 89
2020-03-18 03:00:00 7.5 0 Calma 8 Este 0 -- -- 86
2020-03-18 02:00:00 8.3 3 Este 6 Este 0 -- -- 84
2020-03-18 01:00:00 8.8 0 Calma 7 Este 0 -- -- 80
2020-03-18 00:00:00 10.7 5 Nordeste 9 Nordeste 0 -- -- 76
2020-03-17 23:00:00 11.4 3 Este 8 Nordeste 0 -- -- 76
2020-03-17 22:00:00 12.6 4 Este 8 Este 0 -- -- 72
2020-03-17 21:00:00 13.3 4 Nordeste 10 Nordeste 0 -- -- 69
2020-03-17 20:00:00 13.3 3 Nordeste 15 Sudeste 0 -- -- 64
2020-03-17 19:00:00 14.1 11 Este 32 Sudeste 0 -- -- 58
2020-03-17 18:00:00 15.4 18 Sudeste 41 Este 0 -- -- 56
2020-03-17 17:00:00 16.2 25 Sudeste 39 Este 0 -- -- 53
2020-03-17 16:00:00 16 24 Sudeste 36 Este 0 -- -- 54
2020-03-17 15:00:00 -- 0 Calma 35 Este -- -- -- --
2020-03-17 14:00:00 14.9 17 Este 40 Sudeste 0 -- -- 59
2020-03-17 13:00:00 14 18 Este 32 Este 0 -- -- 62
2020-03-17 12:00:00 12.4 12 Sudeste 18 Nordeste 0 -- -- 69
2020-03-17 11:00:00 9.7 6 Nordeste 15 Este 0 -- -- 86
2020-03-17 10:00:00 6.7 5 Este 8 Sudeste 0 -- -- 90
2020-03-17 09:00:00 5.7 3 Sudeste 8 Sudeste 0 -- -- 92
2020-03-17 08:00:00 4.6 2 Este 8 Sudeste 0 -- -- 94
2020-03-17 07:00:00 3.4 3 Nordeste 8 Sudeste 0 -- -- 95
2020-03-17 06:00:00 2.6 2 Sudeste 5 Sur 0 -- -- 95
2020-03-17 05:00:00 1.2 0 Calma 5 Este 0 -- -- 95
2020-03-17 04:00:00 0.6 3 Nordeste 5 Nordeste 0 -- -- 94
2020-03-17 03:00:00 0.7 0 Calma 5 Noroeste 0 -- -- 94
2020-03-17 02:00:00 0.8 2 Norte 6 Este 0 -- -- 92
2020-03-17 01:00:00 2 2 Este 9 Este 0 -- -- 89
2020-03-17 00:00:00 3.6 6 Este 10 Este 0 -- -- 89
2020-03-16 23:00:00 3.3 0 Calma 10 Este 0 -- -- 83
2020-03-16 22:00:00 4.1 5 Nordeste 16 Este 0 -- -- 81
2020-03-16 21:00:00 5.3 6 Nordeste 12 Nordeste 0 -- -- 76
2020-03-16 20:00:00 6.3 5 Este 16 Sudeste 0 -- -- 70
2020-03-16 19:00:00 7.8 9 Sudeste 21 Este 0.1 -- -- 65
2020-03-16 18:00:00 8 11 Sudeste 26 Sudeste 0.4 -- -- 61
2020-03-16 17:00:00 10 8 Oeste 15 Noroeste 0 -- -- 61
2020-03-16 16:00:00 7.6 4 Sudoeste 13 Oeste 0.7 -- -- 71
2020-03-16 15:00:00 8.2 9 Noroeste 16 Oeste 0 -- -- 67
2020-03-16 14:00:00 11.2 7 Sudoeste 17 Sudoeste 0 -- -- 58
2020-03-16 13:00:00 9.6 3 Norte 12 Oeste 0 -- -- 62
2020-03-16 12:00:00 7.8 5 Oeste 17 Oeste 0 -- -- 68
2020-03-16 11:00:00 8 8 Oeste 16 Oeste 0 -- -- 70
2020-03-16 10:00:00 6.4 6 Oeste 22 Sudoeste 0 -- -- 71
2020-03-16 09:00:00 5.7 6 Sudoeste 13 Oeste 0 -- -- 75
2020-03-16 08:00:00 3.4 6 Sudoeste 20 Oeste 0 -- -- 80
2020-03-16 07:00:00 4.6 8 Oeste 22 Oeste 0 -- -- 79
2020-03-16 06:00:00 5.6 8 Oeste 23 Oeste 0.1 -- -- 82
2020-03-16 05:00:00 6.6 9 Noroeste 19 Noroeste 1.8 -- -- 90
2020-03-16 04:00:00 7.2 8 Noroeste 31 Noroeste 2.6 -- -- 90
2020-03-16 03:00:00 8.5 8 Sudoeste 21 Oeste 2.8 -- -- 90
2020-03-16 02:00:00 9.3 3 Oeste 25 Oeste 1.5 -- -- 88
2020-03-16 01:00:00 10.4 4 Oeste 13 Sudoeste 2.3 -- -- 86
2020-03-16 00:00:00 11.2 5 Oeste 13 Noroeste 0.5 -- -- 86
2020-03-15 23:00:00 11.3 4 Sur 13 Noroeste 2 -- -- 83
2020-03-15 22:00:00 13 3 Sur 35 Sur 0.1 -- -- 66
2020-03-15 21:00:00 11.4 4 Sudoeste 36 Oeste 4.8 -- -- 79
2020-03-15 20:00:00 14.8 18 Noroeste 35 Noroeste 0 -- -- 56
2020-03-15 19:00:00 16.7 4 Sudeste 14 Sur 0 -- -- 62
2020-03-15 18:00:00 19.6 4 Sudeste 10 Sudoeste 0 -- -- 51
2020-03-15 17:00:00 18.8 4 Sudoeste 11 Sudoeste 0.2 -- -- 62
2020-03-15 16:00:00 18.4 6 Oeste 18 Noroeste 0 -- -- 51
2020-03-15 15:00:00 20.2 6 Sudoeste 16 Oeste 0 -- -- 47
2020-03-15 14:00:00 20.1 5 Sudoeste 14 Oeste 0 -- -- 49
2020-03-15 13:00:00 18.8 2 Sudoeste 10 Sudeste 0 -- -- 52
2020-03-15 12:00:00 18.3 4 Sur 15 Este 0 -- -- 55
2020-03-15 11:00:00 15.2 9 Sudeste 19 Sudeste 0 -- -- 66
2020-03-15 10:00:00 13.4 12 Sudeste 23 Sur 0 -- -- 72
2020-03-15 09:00:00 10.8 10 Sudeste 15 Sudeste 0 -- -- 83
2020-03-15 08:00:00 8.2 6 Este 12 Este 0 -- -- 90
2020-03-15 07:00:00 7.8 0 Calma 11 Este 0 -- -- 85
2020-03-15 06:00:00 8.8 8 Este 12 Este 0 -- -- 83
2020-03-15 05:00:00 8.7 8 Este 12 Este 0 -- -- 81
2020-03-15 04:00:00 9.2 9 Este 16 Este 0 -- -- 79
2020-03-15 03:00:00 8.9 4 Este 9 Este 0 -- -- 80
2020-03-15 02:00:00 9.2 5 Este 13 Este 0 -- -- 77
2020-03-15 01:00:00 11 5 Este 13 Este 0 -- -- 73
2020-03-15 00:00:00 10.9 8 Este 13 Este 0 -- -- 71
2020-03-14 23:00:00 10 0 Calma 4 Sudeste 0 -- -- 71
2020-03-14 22:00:00 12.2 3 Este 5 Sudeste 0 -- -- 63
2020-03-14 21:00:00 13.7 0 Calma 7 Norte 0 -- -- 56
2020-03-14 20:00:00 15.9 5 Norte 8 Norte 0 -- -- 49
2020-03-14 19:00:00 21 4 Noroeste 8 Oeste 0 -- -- 39
2020-03-14 18:00:00 22.8 5 Sudoeste 11 Noroeste 0 -- -- 37
2020-03-14 17:00:00 22.9 6 Noroeste 14 Oeste 0 -- -- 39
2020-03-14 16:00:00 23 3 Sur 12 Sudeste 0 -- -- 39
2020-03-14 15:00:00 22.7 3 Sur 12 Sudeste 0 -- -- 42
2020-03-14 14:00:00 21 7 Sudeste 15 Sudeste 0 -- -- 45
2020-03-14 13:00:00 19.4 4 Sudoeste 10 Noroeste 0 -- -- 49
2020-03-14 12:00:00 17.7 5 Sudeste 14 Sudeste 0 -- -- 52
2020-03-14 11:00:00 15.6 6 Sudeste 12 Sudeste 0 -- -- 59
2020-03-14 10:00:00 13.1 4 Sudeste 9 Sudeste 0 -- -- 69
2020-03-14 09:00:00 10.1 3 Sudeste 6 Sur 0 -- -- 81
2020-03-14 08:00:00 7.7 4 Nordeste 8 Este 0 -- -- 86
2020-03-14 07:00:00 8.2 5 Este 8 Este 0 -- -- 85
2020-03-14 06:00:00 8.7 5 Nordeste 15 Sudeste 0 -- -- 83
2020-03-14 05:00:00 9.1 9 Este 17 Sudeste 0 -- -- 83
2020-03-14 04:00:00 9.4 7 Este 14 Este 0 -- -- 79
2020-03-14 03:00:00 10.7 9 Este 16 Sudeste 0 -- -- 76
2020-03-14 02:00:00 11.1 5 Este 13 Este 0 -- -- 75
2020-03-14 01:00:00 11.5 7 Este 11 Sudeste 0 -- -- 75
2020-03-14 00:00:00 12.2 2 Sudeste 9 Este 0 -- -- 70
2020-03-13 23:00:00 12.2 4 Este 10 Este 0 -- -- 68
2020-03-13 22:00:00 12.2 3 Noroeste 6 Oeste 0 -- -- 61
2020-03-13 21:00:00 15.2 4 Noroeste 8 Norte 0 -- -- 52
2020-03-13 20:00:00 17.9 6 Noroeste 12 Noroeste 0 -- -- 46
2020-03-13 19:00:00 20.8 9 Noroeste 17 Norte 0 -- -- 40
2020-03-13 18:00:00 23.3 6 Oeste 13 Noroeste 0 -- -- 37
2020-03-13 17:00:00 23.7 3 Oeste 17 Noroeste 0 -- -- 37
2020-03-13 16:00:00 23.5 8 Noroeste 18 Oeste 0 -- -- 37
2020-03-13 15:00:00 23.4 7 Noroeste 19 Noroeste 0 -- -- 38
2020-03-13 14:00:00 22.8 5 Oeste 18 Oeste 0 -- -- 42
2020-03-13 13:00:00 21.4 0 Calma 11 Oeste 0 -- -- 46
2020-03-13 12:00:00 19.1 3 Oeste 9 Sudoeste 0 -- -- 50
2020-03-13 11:00:00 16.8 3 Sudeste 8 Sudeste 0 -- -- 58
2020-03-13 10:00:00 12.8 3 Sudeste 6 Sudeste 0 -- -- 72
2020-03-13 09:00:00 8.9 6 Sudeste 9 Sudeste 0 -- -- 82
2020-03-13 08:00:00 8.1 3 Este 15 Sudeste 0 -- -- 82
2020-03-13 07:00:00 8.4 7 Este 13 Este 0 -- -- 81
2020-03-13 06:00:00 9 8 Este 13 Sudeste 0 -- -- 80
2020-03-13 05:00:00 8.9 7 Este 12 Este 0 -- -- 79
2020-03-13 04:00:00 8.7 7 Este 12 Este 0 -- -- 77
2020-03-13 03:00:00 9.4 8 Este 11 Sudeste 0 -- -- 74
2020-03-13 02:00:00 11 5 Este 14 Sudeste 0 -- -- 71
2020-03-13 01:00:00 9.7 0 Calma 10 Sudeste 0 -- -- 70
2020-03-13 00:00:00 12.1 5 Este 8 Este 0 -- -- 66
2020-03-12 23:00:00 13.2 2 Sudeste 8 Este 0 -- -- 60
2020-03-12 22:00:00 14.5 0 Calma 5 Noroeste 0 -- -- 57
2020-03-12 21:00:00 16.5 0 Calma 4 Este 0 -- -- 48
2020-03-12 20:00:00 18.5 2 Sudeste 7 Norte 0 -- -- 43
2020-03-12 19:00:00 22.5 4 Norte 14 Noroeste 0 -- -- 35
2020-03-12 18:00:00 24.8 8 Noroeste 19 Noroeste 0 -- -- 32
2020-03-12 17:00:00 25.9 5 Noroeste 13 Noroeste 0 -- -- 30
2020-03-12 16:00:00 26.2 6 Noroeste 15 Noroeste 0 -- -- 30
2020-03-12 15:00:00 25.6 5 Noroeste 17 Noroeste 0 -- -- 32
2020-03-12 14:00:00 26.1 3 Oeste 18 Oeste 0 -- -- 35
2020-03-12 13:00:00 23.8 2 Norte 11 Sudeste 0 -- -- 38
2020-03-12 12:00:00 21.7 6 Sudeste 19 Sudeste 0 -- -- 42
2020-03-12 11:00:00 18 14 Sudeste 23 Sudeste 0 -- -- 49
2020-03-12 10:00:00 14.3 18 Sudeste 25 Sudeste 0 -- -- 62
2020-03-12 09:00:00 9.2 4 Sudeste 8 Sudeste 0 -- -- 84
2020-03-12 08:00:00 6.2 2 Sudeste 5 Sudeste 0 -- -- 89
2020-03-12 07:00:00 5.8 0 Calma 4 Sudeste 0 -- -- 86
2020-03-12 06:00:00 6.7 0 Calma 9 Este 0 -- -- 82
2020-03-12 05:00:00 7.9 5 Este 13 Sudeste 0 -- -- 82
2020-03-12 04:00:00 9.8 11 Sudeste 15 Este 0 -- -- 76
2020-03-12 03:00:00 10.3 6 Este 12 Este 0 -- -- 76
2020-03-12 02:00:00 9.9 0 Calma 12 Este 0 -- -- 72
2020-03-12 01:00:00 12.2 10 Este 15 Este 0 -- -- 69
2020-03-12 00:00:00 12 8 Este 13 Sudeste 0 -- -- 69
2020-03-11 23:00:00 13 5 Este 7 Este 0 -- -- 66
2020-03-11 22:00:00 13.3 3 Norte 6 Noroeste 0 -- -- 63
2020-03-11 21:00:00 15.4 3 Sudeste 6 Norte 0 -- -- 53
2020-03-11 20:00:00 17.8 4 Noroeste 8 Norte 0 -- -- 46
2020-03-11 19:00:00 22.3 5 Norte 7 Noroeste 0 -- -- 38
2020-03-11 18:00:00 25.5 0 Calma 9 Noroeste 0 -- -- 31
2020-03-11 17:00:00 26.6 3 Oeste 9 Noroeste 0 -- -- 32
2020-03-11 16:00:00 25.8 0 Calma 10 Sudoeste 0 -- -- 34
2020-03-11 15:00:00 24.8 3 Oeste 11 Norte 0 -- -- 36
2020-03-11 14:00:00 24.1 4 Sudoeste 9 Sudeste 0 -- -- 38
2020-03-11 13:00:00 22.1 4 Este 9 Sudeste 0 -- -- 41
2020-03-11 12:00:00 20 3 Sudeste 9 Sudeste 0 -- -- 47
2020-03-11 11:00:00 16.5 6 Sudeste 16 Sudeste 0 -- -- 55
2020-03-11 10:00:00 12.1 11 Sudeste 18 Sudeste 0 -- -- 66
2020-03-11 09:00:00 8.4 12 Sudeste 20 Sudeste 0 -- -- 77
2020-03-11 08:00:00 6.7 10 Este 17 Este 0 -- -- 83
2020-03-11 07:00:00 6.2 6 Este 18 Sudeste 0 -- -- 83
2020-03-11 06:00:00 6.4 10 Este 18 Este 0 -- -- 82
2020-03-11 05:00:00 6.6 8 Este 15 Sudeste 0 -- -- 80
2020-03-11 04:00:00 6.8 7 Este 14 Este 0 -- -- 79
2020-03-11 03:00:00 7 6 Este 11 Este 0 -- -- 76
2020-03-11 02:00:00 7.9 4 Este 8 Este 0 -- -- 74
2020-03-11 01:00:00 7.4 0 Calma 6 Este 0 -- -- 72
2020-03-11 00:00:00 8.2 2 Sur 6 Este 0 -- -- 70
2020-03-10 23:00:00 8.6 0 Calma 5 Norte 0 -- -- 67
2020-03-10 22:00:00 9.7 0 Calma 5 Norte 0 -- -- 62
2020-03-10 21:00:00 11.5 2 Noroeste 6 Norte 0 -- -- 52
2020-03-10 20:00:00 15.8 6 Noroeste 12 Noroeste 0 -- -- 41
2020-03-10 19:00:00 19.5 8 Noroeste 19 Noroeste 0 -- -- 35
2020-03-10 18:00:00 23.5 8 Oeste 18 Noroeste 0 -- -- 32
2020-03-10 17:00:00 23.4 6 Noroeste 16 Noroeste 0 -- -- 32
2020-03-10 16:00:00 22.4 6 Noroeste 16 Oeste 0 -- -- 33
2020-03-10 15:00:00 21.4 6 Oeste 15 Noroeste 0 -- -- 36
2020-03-10 14:00:00 19.5 7 Noroeste 15 Noroeste 0 -- -- 37
2020-03-10 13:00:00 18 3 Noroeste 11 Sudoeste 0 -- -- 38
2020-03-10 12:00:00 16.1 4 Sudoeste 10 Noroeste 0 -- -- 41
2020-03-10 11:00:00 13.7 4 Sudeste 16 Este 0 -- -- 49
2020-03-10 10:00:00 8.7 12 Sudeste 18 Este 0 -- -- 63
2020-03-10 09:00:00 5.8 12 Este 18 Sudeste 0 -- -- 73
2020-03-10 08:00:00 2.7 9 Sudeste 17 Sudeste 0 -- -- 80
2020-03-10 07:00:00 3.1 12 Este 18 Sudeste 0 -- -- 79
2020-03-10 06:00:00 2.7 6 Este 11 Este 0 -- -- 77
2020-03-10 05:00:00 3.5 3 Este 9 Sudeste 0 -- -- 74
2020-03-10 04:00:00 3.8 3 Sudeste 8 Sudeste 0 -- -- 74
2020-03-10 03:00:00 3.7 0 Calma 9 Este 0 -- -- 74
2020-03-10 02:00:00 3.1 0 Calma 6 Noroeste 0 -- -- 74
2020-03-10 01:00:00 4.6 3 Sudeste 9 Noroeste 0 -- -- 69
2020-03-10 00:00:00 5.5 4 Norte 8 Noroeste 0 -- -- 64
2020-03-09 23:00:00 7.1 3 Sudeste 9 Sudeste 0 -- -- 57
2020-03-09 22:00:00 11.6 7 Nordeste 12 Nordeste 0 -- -- 44
2020-03-09 21:00:00 11.6 6 Nordeste 14 Norte 0 -- -- 44
2020-03-09 20:00:00 13.4 8 Norte 15 Noroeste 0 -- -- 40
2020-03-09 19:00:00 15.6 5 Norte 13 Noroeste 0 -- -- 34
2020-03-09 18:00:00 18.4 8 Norte 24 Noroeste 0 -- -- 29
2020-03-09 17:00:00 19.3 9 Noroeste 24 Noroeste 0 -- -- 28
2020-03-09 16:00:00 18.9 12 Noroeste 23 Noroeste 0 -- -- 31
2020-03-09 15:00:00 17.1 6 Noroeste 17 Noroeste 0 -- -- 38
2020-03-09 14:00:00 16.2 8 Oeste 17 Noroeste 0 -- -- 41
2020-03-09 13:00:00 15.3 6 Oeste 23 Noroeste 0 -- -- 43
2020-03-09 12:00:00 14.4 2 Nordeste 19 Nordeste 0 -- -- 46
2020-03-09 11:00:00 13 7 Nordeste 19 Norte 0 -- -- 52
2020-03-09 10:00:00 10.8 6 Noroeste 11 Noroeste 0 -- -- 59
2020-03-09 09:00:00 8.8 4 Oeste 10 Oeste 0 -- -- 69
2020-03-09 08:00:00 6.1 6 Noroeste 12 Norte 0 -- -- 73
2020-03-09 07:00:00 6.5 4 Sudoeste 22 Noroeste 0 -- -- 69
2020-03-09 06:00:00 8.5 5 Noroeste 23 Noroeste 0 -- -- 65
2020-03-09 05:00:00 8.3 8 Noroeste 21 Noroeste 0 -- -- 68
2020-03-09 04:00:00 7.5 10 Oeste 22 Oeste 0 -- -- 74
2020-03-09 03:00:00 8.6 11 Oeste 20 Noroeste 0 -- -- 72
2020-03-09 02:00:00 6.5 7 Oeste 13 Noroeste 0 -- -- 84
2020-03-09 01:00:00 6.6 3 Norte 8 Oeste 0 -- -- 80
2020-03-09 00:00:00 8.6 6 Oeste 13 Noroeste 0 -- -- 75
2020-03-08 23:00:00 9.3 0 Calma 11 Oeste 0 -- -- 70
2020-03-08 22:00:00 10.3 5 Oeste 10 Oeste 0 -- -- 61
2020-03-08 21:00:00 12.6 5 Oeste 18 Oeste 0 -- -- 56
2020-03-08 20:00:00 12.9 6 Oeste 16 Oeste 0 -- -- 55
2020-03-08 19:00:00 14 4 Sudoeste 22 Oeste 0 -- -- 48
2020-03-08 18:00:00 15 7 Oeste 18 Oeste 0 -- -- 46
2020-03-08 17:00:00 16 9 Oeste 21 Oeste 0 -- -- 42
2020-03-08 16:00:00 17 11 Oeste 23 Noroeste 0 -- -- 39
2020-03-08 15:00:00 18.1 10 Oeste 23 Sudoeste 0 -- -- 39
2020-03-08 14:00:00 16.1 9 Oeste 21 Sudoeste 0 -- -- 44
2020-03-08 13:00:00 14.7 4 Oeste 15 Oeste 0 -- -- 49
2020-03-08 12:00:00 12.1 5 Sudoeste 13 Noroeste 0 -- -- 56
2020-03-08 11:00:00 10.6 0 Calma 14 Sudeste 0 -- -- 61
2020-03-08 10:00:00 6 10 Sudeste 20 Este 0 -- -- 76
2020-03-08 09:00:00 2.6 10 Sudeste 19 Sudeste 0 -- -- 85
2020-03-08 08:00:00 0.4 6 Este 16 Sudeste 0 -- -- 90
2020-03-08 07:00:00 -0.2 11 Este 17 Este 0 -- -- 89
2020-03-08 06:00:00 0 8 Este 15 Este 0 -- -- 88
2020-03-08 05:00:00 -0.3 3 Sudeste 7 Este 0 -- -- 87
2020-03-08 04:00:00 1 4 Este 9 Este 0 -- -- 87
2020-03-08 03:00:00 0.2 0 Calma 7 Este 0 -- -- 85
2020-03-08 02:00:00 0.7 0 Calma 8 Este 0 -- -- 83
2020-03-08 01:00:00 1.3 5 Norte 8 Noroeste 0 -- -- 81
2020-03-08 00:00:00 2.8 3 Norte 7 Norte 0 -- -- 76